Airfield :
LOGIN :

Register | Disclaimer

   EN    FR    IT 

 










Legend :    VFR   Marginal VFR   IFR   Intensive IFR   Very Intensive IFR
Visi :
Ceiling :
>= 8 km
>= 3000ft
5 to 8 km
1000 to 3000 ft
1500m to 5 km
500 to 1000 ft
800 to 1500m
200 to 500 ft
< 800m
< 200 ft
Symbols :   Thunderstorms  Fog  Heavy snow  Heavy precipitations  Wind > 20 kt
SIGMETs :     Misc.  Thunderstorms  Icing  Turbulence  Mountain Waves  Volcanic Ashes







- Airport Elevation : 622 ft
- IATA code : BRS
- Download approach charts


EGGD - Bristol Int.

CURRENT METAR :
  • 211720Z 24013KT 6000 RA BKN004 10/10 Q1000

EXPIRED METARs :
  • 211650Z AUTO 22015KT 8000 -RA BKN003/// OVC007/// //////TCU 10/10 Q0999
  • 211620Z 22015G25KT 5000 -RADZ BR BKN005 10/10 Q0999
  • 211550Z 22017KT 9000 -RA BKN012 10/09 Q0999
  • 211520Z 23019G30KT 9000 -RA BKN019 11/08 Q0999
  • 211450Z 22018KT 8000 2900W -SHRA FEW012TCU SCT016 BKN019 11/09 Q0999

TAF AMD TAF EGGD
Valid from the 21 at 17:00 until the 22 at 12:00 UTC


211704Z 2117/2212 22020G30KT 8000 RA BKN003
BECMG 2117/2120 27020KT 9999 NSW SCT015
PROB40
TEMPO 2117/2119 24026G40KT 2500 +SHRA
TEMPO 2119/2212 28022G36KT 6000 SHRA BKN014
PROB30
TEMPO 2119/2204 3000 +SHRA BKN005
ATIS : +44 1275 473 666
No reported NOTAMs for that airfield.
2 SIGMETs reported for the London FIR (EGTT) :
 
Severe turbulence
EGTT SIGMET 05 VALID 211800/212200 EGRR
EGTT LONDON FIR SEV TURB FCST SE OF LINE N5500 W00059 - N5332 W00530 SFC/FL060 STNR WKN=
Severe turbulence
EGTT SIGMET 04 VALID 211400/211800 EGRR
EGTT LONDON FIR SEV TURB FCST S OF N5400 SFC/FL060 STNR WKN=



MET'MAP, your aeronautical weather chart ! - Copyright ORBIFLY December 2007 - Disclaimer

ORBIFLY MET'MAP TEAM :

Programming & Development : Alexandra Zaïnal
Concept & Development : Baudouin d'Aumeries
Co-Development & Prog : Marc-Olivier Méhu
Technical & hardware support : Manuel Goepfert

Contact : metmap@orbifly.com




SOURCES & CREDITS :

   NOAA